»·PEaware :: N73YZ KSNA-L71

N73YZ :: KSNA-L71

FLIGHT INFORMATION

Flight Status: Arrived
Operator: Privately registered:
United States
More flights under this callsign
Pilot: William K. (10629)
Aircraft: CESSNA 206 STATIONAIR
(c206)
More flights by this aircraft type
Origin: KSNA John Wayne-Orange Co
United States
Destination: L71 California City Mun
United States
More flights between these airports :: More routes between these airports
Route: +
File this flight plan on PilotEdge
Remarks:
Altitude:
(Current/Filed)
0ft
Speed:
(Current/Filed)
0kts
Departed: 31-Aug-16 02:04 PM
Arrived: 31-Aug-16 03:00 PM
Distance/Time
Traveled:
86nm/0:56
Distance/Time
To Go:
Arrived

Flight Plot

Page will automatically refresh every two minutes.

Flight plan parsing failed; only flown route is shown


Map Options




Map Legend


Flown Route
Filed Route
Departure Airport
Arrival Airport
Navaid (VOR, NDB)
Fix

Horizontal Profiles

Position Reports

Time Latitude Longitude Heading Altitude Ground
Speed
31-Aug-16 13:57 33.672171 -117.867327 220 60ft 0kts
31-Aug-16 13:58 33.672171 -117.867327 220 60ft 0kts
31-Aug-16 13:59 33.674054 -117.867141 27 59ft 18kts
31-Aug-16 14:00 33.679849 -117.863508 348 60ft 16kts
31-Aug-16 14:01 33.680041 -117.863768 305 60ft 3kts
31-Aug-16 14:02 33.665864 -117.873054 208 513ft 87kts
31-Aug-16 14:03 33.653918 -117.906097 252 1109ft 124kts
31-Aug-16 14:04 33.643217 -117.946029 252 1704ft 120kts
31-Aug-16 14:05 33.635535 -117.974797 252 2247ft 106kts
31-Aug-16 14:06 33.624893 -118.015906 252 2861ft 106kts
31-Aug-16 14:07 33.618119 -118.042973 252 3434ft 98kts
31-Aug-16 14:08 33.610773 -118.073061 251 4125ft 90kts
31-Aug-16 14:09 33.619724 -118.097582 314 4805ft 87kts
31-Aug-16 14:10 33.638379 -118.117671 315 5351ft 95kts
31-Aug-16 14:11 33.659248 -118.139944 316 5861ft 104kts
31-Aug-16 14:12 33.681507 -118.163624 317 6365ft 108kts
31-Aug-16 14:13 33.706421 -118.190058 317 6501ft 133kts
31-Aug-16 14:14 33.733124 -118.218407 317 6472ft 131kts
31-Aug-16 14:15 33.759970 -118.246994 318 6475ft 127kts
31-Aug-16 14:16 33.786278 -118.275059 318 6477ft 126kts
31-Aug-16 14:17 33.812632 -118.303195 318 6479ft 126kts
31-Aug-16 14:18 33.839083 -118.331447 319 6481ft 127kts
31-Aug-16 14:19 33.865688 -118.359881 318 6481ft 129kts
31-Aug-16 14:20 33.892592 -118.388664 318 6481ft 130kts
31-Aug-16 14:21 33.919771 -118.417772 318 6481ft 131kts
31-Aug-16 14:22 33.946971 -118.446487 331 6480ft 131kts
31-Aug-16 14:23 33.981014 -118.461772 341 6478ft 131kts
31-Aug-16 14:24 34.015545 -118.476018 341 6477ft 131kts
31-Aug-16 14:25 34.049593 -118.473393 20 6679ft 125kts
31-Aug-16 14:26 34.082070 -118.459123 18 7175ft 123kts
31-Aug-16 14:27 34.114041 -118.445820 17 7669ft 122kts
31-Aug-16 14:28 34.146166 -118.432644 17 8168ft 122kts
31-Aug-16 14:29 34.179121 -118.419156 17 8469ft 136kts
31-Aug-16 14:30 34.217361 -118.403518 18 8466ft 150kts
31-Aug-16 14:31 34.255255 -118.387992 19 8464ft 138kts
31-Aug-16 14:32 34.291194 -118.373236 19 8473ft 135kts
31-Aug-16 14:33 34.326652 -118.358684 19 8482ft 134kts
31-Aug-16 14:34 34.361890 -118.344214 19 8490ft 133kts
31-Aug-16 14:35 34.397113 -118.329740 19 8498ft 133kts
31-Aug-16 14:36 34.431365 -118.315671 19 8504ft 133kts
31-Aug-16 14:37 34.466605 -118.301158 19 8512ft 133kts
31-Aug-16 14:38 34.501880 -118.286620 20 8486ft 136kts
31-Aug-16 14:39 34.537560 -118.271860 17 8488ft 135kts
31-Aug-16 14:40 34.573079 -118.257242 17 8492ft 134kts
31-Aug-16 14:41 34.608523 -118.242609 17 8493ft 134kts
31-Aug-16 14:42 34.643966 -118.227956 17 8494ft 134kts
31-Aug-16 14:43 34.679360 -118.213308 17 8494ft 135kts
31-Aug-16 14:44 34.714949 -118.198515 18 8495ft 135kts
31-Aug-16 14:45 34.750439 -118.183784 18 8473ft 136kts
31-Aug-16 14:46 34.787336 -118.168456 17 7972ft 142kts
31-Aug-16 14:47 34.824933 -118.152836 16 7468ft 143kts
31-Aug-16 14:48 34.862505 -118.137214 15 6965ft 143kts
31-Aug-16 14:49 34.900459 -118.121431 15 6461ft 144kts
31-Aug-16 14:50 34.938653 -118.105528 15 5958ft 145kts
31-Aug-16 14:51 34.977013 -118.089535 15 5457ft 146kts
31-Aug-16 14:52 35.015753 -118.073369 15 4957ft 148kts
31-Aug-16 14:53 35.054503 -118.057175 15 4456ft 145kts
31-Aug-16 14:54 35.092439 -118.041313 15 3957ft 143kts
31-Aug-16 14:55 35.129901 -118.025638 24 3500ft 140kts
31-Aug-16 14:56 35.145636 -117.987088 65 3427ft 120kts
31-Aug-16 14:57 35.154993 -117.999104 248 2610ft 96kts
31-Aug-16 14:58 35.151078 -118.016334 180 2439ft 12kts
31-Aug-16 14:59 35.150492 -118.016168 90 2439ft 0kts
31-Aug-16 15:00 35.150514 -118.016108 61 2439ft 4kts
31-Aug-16 15:01 35.152354 -118.008074 76 2439ft 38kts
31-Aug-16 15:02 35.153064 -118.008099 255 2439ft 36kts
31-Aug-16 15:03 35.140782 -118.022160 186 3203ft 103kts
31-Aug-16 15:04 35.106888 -118.023538 186 3819ft 128kts

Navigation Log

Ident Type
Flight plan parsing failed, navigation log unavailable